Terminal Aerodrome Forecast
Issued by NWS

Home | Current Version | Previous Version | Text Only | Print | Product List | Glossary On
Versions: 1 2 3 4 5 6 7 8 9 10 11 12 13 14 15
000
FTUS43 KMPX 052321
TAFRWF
TAF
KRWF 052321Z 0600/0624 12013KT P6SM VCSH OVC014
     FM060800 13011KT 6SM -SHRA SCT015 OVC025
     FM061200 14014G21KT 5SM BR VCSH SCT020 BKN030
     FM061500 15017G25KT 6SM -SHRA VCTS SCT020 BKN035CB=

USA.gov is the U.S. government's official web portal to all federal, state and local government web resources and services.